sensor_id;sensor_type;location;lat;lon;timestamp;temperature;humidity
16134;DHT22;8172;45.018;5.972;2023-06-22T00:03:01;24.70;41.30
16134;DHT22;8172;45.018;5.972;2023-06-22T00:08:09;24.80;44.00
16134;DHT22;8172;45.018;5.972;2023-06-22T00:13:17;24.80;43.70
16134;DHT22;8172;45.018;5.972;2023-06-22T00:18:24;24.70;42.00
16134;DHT22;8172;45.018;5.972;2023-06-22T00:23:33;24.70;41.20
16134;DHT22;8172;45.018;5.972;2023-06-22T00:28:41;24.70;41.20
16134;DHT22;8172;45.018;5.972;2023-06-22T00:33:49;24.80;41.80
16134;DHT22;8172;45.018;5.972;2023-06-22T00:38:56;24.80;42.00
16134;DHT22;8172;45.018;5.972;2023-06-22T00:44:06;24.90;45.10
16134;DHT22;8172;45.018;5.972;2023-06-22T00:49:14;24.70;46.60
16134;DHT22;8172;45.018;5.972;2023-06-22T00:54:21;24.60;46.50
16134;DHT22;8172;45.018;5.972;2023-06-22T00:59:32;24.40;47.70
16134;DHT22;8172;45.018;5.972;2023-06-22T01:04:40;24.30;48.50
16134;DHT22;8172;45.018;5.972;2023-06-22T01:09:51;24.20;48.20
16134;DHT22;8172;45.018;5.972;2023-06-22T01:15:03;24.10;46.30
16134;DHT22;8172;45.018;5.972;2023-06-22T01:20:09;24.00;44.70
16134;DHT22;8172;45.018;5.972;2023-06-22T01:25:19;23.90;43.60
16134;DHT22;8172;45.018;5.972;2023-06-22T01:30:28;24.00;43.20
16134;DHT22;8172;45.018;5.972;2023-06-22T01:35:38;24.10;42.90
16134;DHT22;8172;45.018;5.972;2023-06-22T01:40:45;24.20;42.90
16134;DHT22;8172;45.018;5.972;2023-06-22T01:45:55;24.30;42.60
16134;DHT22;8172;45.018;5.972;2023-06-22T01:51:03;24.40;42.40
16134;DHT22;8172;45.018;5.972;2023-06-22T01:56:11;24.40;42.60
16134;DHT22;8172;45.018;5.972;2023-06-22T02:01:23;24.50;42.30
16134;DHT22;8172;45.018;5.972;2023-06-22T02:06:33;24.60;42.40
16134;DHT22;8172;45.018;5.972;2023-06-22T02:11:43;24.60;42.10
16134;DHT22;8172;45.018;5.972;2023-06-22T02:16:52;24.60;42.20
16134;DHT22;8172;45.018;5.972;2023-06-22T02:21:59;24.60;42.10
16134;DHT22;8172;45.018;5.972;2023-06-22T02:27:07;24.60;41.80
16134;DHT22;8172;45.018;5.972;2023-06-22T02:32:15;24.60;41.70
16134;DHT22;8172;45.018;5.972;2023-06-22T02:37:24;24.50;41.60
16134;DHT22;8172;45.018;5.972;2023-06-22T02:42:31;24.50;41.50
16134;DHT22;8172;45.018;5.972;2023-06-22T02:47:38;24.50;41.20
16134;DHT22;8172;45.018;5.972;2023-06-22T02:52:46;24.50;41.20
16134;DHT22;8172;45.018;5.972;2023-06-22T02:57:54;24.50;41.20
16134;DHT22;8172;45.018;5.972;2023-06-22T03:03:03;24.50;41.10
16134;DHT22;8172;45.018;5.972;2023-06-22T03:08:10;24.50;41.20
16134;DHT22;8172;45.018;5.972;2023-06-22T03:13:19;24.50;41.20
16134;DHT22;8172;45.018;5.972;2023-06-22T03:18:27;24.50;41.30
16134;DHT22;8172;45.018;5.972;2023-06-22T03:23:35;24.50;41.10
16134;DHT22;8172;45.018;5.972;2023-06-22T03:28:43;24.50;41.10
16134;DHT22;8172;45.018;5.972;2023-06-22T03:33:51;24.60;41.10
16134;DHT22;8172;45.018;5.972;2023-06-22T03:39:00;24.60;41.20
16134;DHT22;8172;45.018;5.972;2023-06-22T03:44:08;24.60;40.70
16134;DHT22;8172;45.018;5.972;2023-06-22T03:49:17;24.60;40.80
16134;DHT22;8172;45.018;5.972;2023-06-22T03:54:25;24.60;40.60
16134;DHT22;8172;45.018;5.972;2023-06-22T03:59:32;24.60;40.20
16134;DHT22;8172;45.018;5.972;2023-06-22T04:04:39;24.60;39.90
16134;DHT22;8172;45.018;5.972;2023-06-22T04:09:47;24.60;39.70
16134;DHT22;8172;45.018;5.972;2023-06-22T04:14:54;24.60;40.00
16134;DHT22;8172;45.018;5.972;2023-06-22T04:20:02;24.60;41.00
16134;DHT22;8172;45.018;5.972;2023-06-22T04:25:10;24.60;43.30
16134;DHT22;8172;45.018;5.972;2023-06-22T04:30:19;24.40;44.70
16134;DHT22;8172;45.018;5.972;2023-06-22T04:35:26;24.20;45.50
16134;DHT22;8172;45.018;5.972;2023-06-22T04:40:34;24.00;47.40
16134;DHT22;8172;45.018;5.972;2023-06-22T04:45:42;23.70;47.30
16134;DHT22;8172;45.018;5.972;2023-06-22T04:50:49;23.50;47.70
16134;DHT22;8172;45.018;5.972;2023-06-22T04:55:57;23.30;49.30
16134;DHT22;8172;45.018;5.972;2023-06-22T05:01:04;23.30;49.60
16134;DHT22;8172;45.018;5.972;2023-06-22T05:06:12;23.10;51.10
16134;DHT22;8172;45.018;5.972;2023-06-22T05:11:20;23.10;52.30
16134;DHT22;8172;45.018;5.972;2023-06-22T05:16:28;23.10;53.00
16134;DHT22;8172;45.018;5.972;2023-06-22T05:21:35;23.00;54.20
16134;DHT22;8172;45.018;5.972;2023-06-22T05:26:42;22.90;54.60
16134;DHT22;8172;45.018;5.972;2023-06-22T05:31:49;22.80;54.60
16134;DHT22;8172;45.018;5.972;2023-06-22T05:36:57;22.70;55.10
16134;DHT22;8172;45.018;5.972;2023-06-22T05:42:06;22.60;55.60
16134;DHT22;8172;45.018;5.972;2023-06-22T05:47:17;22.50;55.70
16134;DHT22;8172;45.018;5.972;2023-06-22T05:52:24;22.40;56.30
16134;DHT22;8172;45.018;5.972;2023-06-22T05:57:31;22.30;56.80
16134;DHT22;8172;45.018;5.972;2023-06-22T06:02:38;22.30;57.10
16134;DHT22;8172;45.018;5.972;2023-06-22T06:07:47;22.30;57.40
16134;DHT22;8172;45.018;5.972;2023-06-22T06:12:55;22.20;58.10
16134;DHT22;8172;45.018;5.972;2023-06-22T06:18:02;22.20;58.50
16134;DHT22;8172;45.018;5.972;2023-06-22T06:23:11;22.10;58.70
16134;DHT22;8172;45.018;5.972;2023-06-22T06:28:19;22.10;59.00
16134;DHT22;8172;45.018;5.972;2023-06-22T06:33:27;22.10;59.50
16134;DHT22;8172;45.018;5.972;2023-06-22T06:38:34;22.00;59.60
16134;DHT22;8172;45.018;5.972;2023-06-22T06:43:41;21.90;60.20
16134;DHT22;8172;45.018;5.972;2023-06-22T06:48:49;21.80;60.40
16134;DHT22;8172;45.018;5.972;2023-06-22T06:53:56;21.80;60.80
16134;DHT22;8172;45.018;5.972;2023-06-22T06:59:04;21.70;61.20
16134;DHT22;8172;45.018;5.972;2023-06-22T07:04:11;21.60;61.50
16134;DHT22;8172;45.018;5.972;2023-06-22T07:09:19;21.50;61.90
16134;DHT22;8172;45.018;5.972;2023-06-22T07:14:26;21.40;62.10
16134;DHT22;8172;45.018;5.972;2023-06-22T07:19:33;21.40;62.50
16134;DHT22;8172;45.018;5.972;2023-06-22T07:24:40;21.40;62.70
16134;DHT22;8172;45.018;5.972;2023-06-22T07:29:49;21.40;62.90
16134;DHT22;8172;45.018;5.972;2023-06-22T07:34:56;21.40;63.10
16134;DHT22;8172;45.018;5.972;2023-06-22T07:40:04;21.40;63.30
16134;DHT22;8172;45.018;5.972;2023-06-22T07:45:13;21.30;63.50
16134;DHT22;8172;45.018;5.972;2023-06-22T07:50:20;21.20;63.70
16134;DHT22;8172;45.018;5.972;2023-06-22T07:55:27;21.20;63.90
16134;DHT22;8172;45.018;5.972;2023-06-22T08:00:35;21.10;64.10
16134;DHT22;8172;45.018;5.972;2023-06-22T08:05:42;21.00;64.40
16134;DHT22;8172;45.018;5.972;2023-06-22T08:10:50;20.80;64.90
16134;DHT22;8172;45.018;5.972;2023-06-22T08:15:57;20.60;65.60
16134;DHT22;8172;45.018;5.972;2023-06-22T08:21:04;20.70;66.50
16134;DHT22;8172;45.018;5.972;2023-06-22T08:26:12;20.80;67.00
16134;DHT22;8172;45.018;5.972;2023-06-22T08:31:19;20.90;66.40
16134;DHT22;8172;45.018;5.972;2023-06-22T08:36:26;20.80;66.10
16134;DHT22;8172;45.018;5.972;2023-06-22T08:41:36;20.80;66.80
16134;DHT22;8172;45.018;5.972;2023-06-22T08:46:43;20.90;66.40
16134;DHT22;8172;45.018;5.972;2023-06-22T08:51:51;20.90;66.60
16134;DHT22;8172;45.018;5.972;2023-06-22T08:57:01;21.00;67.10
16134;DHT22;8172;45.018;5.972;2023-06-22T09:02:09;21.00;66.80
16134;DHT22;8172;45.018;5.972;2023-06-22T09:07:16;21.10;67.10
16134;DHT22;8172;45.018;5.972;2023-06-22T09:12:26;21.10;66.50
16134;DHT22;8172;45.018;5.972;2023-06-22T09:17:35;21.20;67.00
16134;DHT22;8172;45.018;5.972;2023-06-22T09:22:42;21.30;67.20
16134;DHT22;8172;45.018;5.972;2023-06-22T09:27:50;21.40;67.40
16134;DHT22;8172;45.018;5.972;2023-06-22T09:32:58;21.40;67.30
16134;DHT22;8172;45.018;5.972;2023-06-22T09:38:06;21.50;67.10
16134;DHT22;8172;45.018;5.972;2023-06-22T09:43:13;21.60;67.10
16134;DHT22;8172;45.018;5.972;2023-06-22T09:48:20;21.50;67.10
16134;DHT22;8172;45.018;5.972;2023-06-22T09:53:27;21.40;67.30
16134;DHT22;8172;45.018;5.972;2023-06-22T09:58:35;21.40;66.90
16134;DHT22;8172;45.018;5.972;2023-06-22T10:03:42;21.50;67.00
16134;DHT22;8172;45.018;5.972;2023-06-22T10:08:51;21.50;67.30
16134;DHT22;8172;45.018;5.972;2023-06-22T10:13:58;21.60;67.20
16134;DHT22;8172;45.018;5.972;2023-06-22T10:19:07;21.60;66.70
16134;DHT22;8172;45.018;5.972;2023-06-22T10:24:14;21.60;66.20
16134;DHT22;8172;45.018;5.972;2023-06-22T10:29:21;21.50;65.90
16134;DHT22;8172;45.018;5.972;2023-06-22T10:34:29;21.20;67.10
16134;DHT22;8172;45.018;5.972;2023-06-22T10:39:36;21.00;67.80
16134;DHT22;8172;45.018;5.972;2023-06-22T10:44:44;20.80;68.30
16134;DHT22;8172;45.018;5.972;2023-06-22T10:49:51;20.70;68.50
16134;DHT22;8172;45.018;5.972;2023-06-22T10:54:58;20.70;68.40
16134;DHT22;8172;45.018;5.972;2023-06-22T11:00:06;20.70;69.00
16134;DHT22;8172;45.018;5.972;2023-06-22T11:05:14;20.80;69.00
16134;DHT22;8172;45.018;5.972;2023-06-22T11:10:22;20.90;69.00
16134;DHT22;8172;45.018;5.972;2023-06-22T11:15:30;21.00;68.70
16134;DHT22;8172;45.018;5.972;2023-06-22T11:20:38;21.10;68.30
16134;DHT22;8172;45.018;5.972;2023-06-22T11:25:47;21.00;69.10
16134;DHT22;8172;45.018;5.972;2023-06-22T11:30:54;21.00;69.60
16134;DHT22;8172;45.018;5.972;2023-06-22T11:36:03;21.10;69.90
16134;DHT22;8172;45.018;5.972;2023-06-22T11:41:10;21.20;70.00
16134;DHT22;8172;45.018;5.972;2023-06-22T11:46:18;21.20;70.20
16134;DHT22;8172;45.018;5.972;2023-06-22T11:51:25;21.20;70.10
16134;DHT22;8172;45.018;5.972;2023-06-22T11:56:34;21.10;70.20
16134;DHT22;8172;45.018;5.972;2023-06-22T12:01:41;21.20;70.50
16134;DHT22;8172;45.018;5.972;2023-06-22T12:06:57;21.40;70.40
16134;DHT22;8172;45.018;5.972;2023-06-22T12:12:04;21.50;70.20
16134;DHT22;8172;45.018;5.972;2023-06-22T12:17:13;21.70;70.50
16134;DHT22;8172;45.018;5.972;2023-06-22T12:22:20;21.90;70.50
16134;DHT22;8172;45.018;5.972;2023-06-22T12:27:27;22.10;69.40
16134;DHT22;8172;45.018;5.972;2023-06-22T12:32:37;22.40;68.90
16134;DHT22;8172;45.018;5.972;2023-06-22T12:37:44;22.50;68.50
16134;DHT22;8172;45.018;5.972;2023-06-22T12:42:52;22.50;68.60
16134;DHT22;8172;45.018;5.972;2023-06-22T12:47:59;22.40;68.30
16134;DHT22;8172;45.018;5.972;2023-06-22T12:53:07;22.50;68.10
16134;DHT22;8172;45.018;5.972;2023-06-22T12:58:14;22.60;67.70
16134;DHT22;8172;45.018;5.972;2023-06-22T13:03:21;22.60;67.60
16134;DHT22;8172;45.018;5.972;2023-06-22T13:08:31;22.70;68.10
16134;DHT22;8172;45.018;5.972;2023-06-22T13:13:40;22.70;68.00
16134;DHT22;8172;45.018;5.972;2023-06-22T13:18:47;22.60;68.20
16134;DHT22;8172;45.018;5.972;2023-06-22T13:23:55;22.60;68.00
16134;DHT22;8172;45.018;5.972;2023-06-22T13:29:02;22.80;67.80
16134;DHT22;8172;45.018;5.972;2023-06-22T13:34:10;22.80;67.10
16134;DHT22;8172;45.018;5.972;2023-06-22T13:39:18;22.60;61.10
16134;DHT22;8172;45.018;5.972;2023-06-22T13:44:26;22.60;64.60
16134;DHT22;8172;45.018;5.972;2023-06-22T13:49:35;22.80;62.90
16134;DHT22;8172;45.018;5.972;2023-06-22T13:54:42;22.80;62.90
16134;DHT22;8172;45.018;5.972;2023-06-22T13:59:49;22.50;58.80
16134;DHT22;8172;45.018;5.972;2023-06-22T14:04:57;22.40;58.80
16134;DHT22;8172;45.018;5.972;2023-06-22T14:10:05;22.40;60.00
16134;DHT22;8172;45.018;5.972;2023-06-22T14:15:13;22.40;56.70
16134;DHT22;8172;45.018;5.972;2023-06-22T14:20:20;22.40;59.60
16134;DHT22;8172;45.018;5.972;2023-06-22T14:25:28;22.30;57.70
16134;DHT22;8172;45.018;5.972;2023-06-22T14:30:35;22.30;59.30
16134;DHT22;8172;45.018;5.972;2023-06-22T14:35:42;22.00;61.30
16134;DHT22;8172;45.018;5.972;2023-06-22T14:40:50;21.40;64.70
16134;DHT22;8172;45.018;5.972;2023-06-22T14:46:30;20.10;62.30
16134;DHT22;8172;45.018;5.972;2023-06-22T14:51:45;19.10;65.20
16134;DHT22;8172;45.018;5.972;2023-06-22T14:56:54;18.70;66.10
16134;DHT22;8172;45.018;5.972;2023-06-22T15:02:04;18.70;67.00
16134;DHT22;8172;45.018;5.972;2023-06-22T15:07:17;18.70;67.20
16134;DHT22;8172;45.018;5.972;2023-06-22T15:12:26;18.70;67.30
16134;DHT22;8172;45.018;5.972;2023-06-22T15:17:34;18.70;68.00
16134;DHT22;8172;45.018;5.972;2023-06-22T15:22:43;18.40;68.90
16134;DHT22;8172;45.018;5.972;2023-06-22T15:27:50;18.40;69.40
16134;DHT22;8172;45.018;5.972;2023-06-22T15:33:00;18.60;70.10
16134;DHT22;8172;45.018;5.972;2023-06-22T15:38:13;18.70;70.10
16134;DHT22;8172;45.018;5.972;2023-06-22T15:43:22;18.80;69.80
16134;DHT22;8172;45.018;5.972;2023-06-22T15:48:31;18.80;70.00
16134;DHT22;8172;45.018;5.972;2023-06-22T15:53:40;18.70;69.80
16134;DHT22;8172;45.018;5.972;2023-06-22T15:58:49;18.60;70.30
16134;DHT22;8172;45.018;5.972;2023-06-22T16:03:56;18.60;70.50
16134;DHT22;8172;45.018;5.972;2023-06-22T16:09:04;18.60;70.40
16134;DHT22;8172;45.018;5.972;2023-06-22T16:14:12;18.60;70.70
16134;DHT22;8172;45.018;5.972;2023-06-22T16:19:22;18.60;70.20
16134;DHT22;8172;45.018;5.972;2023-06-22T16:24:34;18.60;70.80
16134;DHT22;8172;45.018;5.972;2023-06-22T16:29:42;18.60;70.30
16134;DHT22;8172;45.018;5.972;2023-06-22T16:34:50;18.60;70.60
16134;DHT22;8172;45.018;5.972;2023-06-22T16:40:00;18.60;70.40
16134;DHT22;8172;45.018;5.972;2023-06-22T16:45:14;18.60;70.60
16134;DHT22;8172;45.018;5.972;2023-06-22T16:50:25;18.60;70.40
16134;DHT22;8172;45.018;5.972;2023-06-22T16:55:33;18.60;70.60
16134;DHT22;8172;45.018;5.972;2023-06-22T17:00:41;18.70;70.80
16134;DHT22;8172;45.018;5.972;2023-06-22T17:05:49;18.80;71.20
16134;DHT22;8172;45.018;5.972;2023-06-22T17:10:59;18.80;70.90
16134;DHT22;8172;45.018;5.972;2023-06-22T17:16:08;18.90;70.50
16134;DHT22;8172;45.018;5.972;2023-06-22T17:26:26;19.00;70.50
16134;DHT22;8172;45.018;5.972;2023-06-22T17:31:36;18.90;71.10
16134;DHT22;8172;45.018;5.972;2023-06-22T17:36:47;19.00;71.00
16134;DHT22;8172;45.018;5.972;2023-06-22T17:41:54;19.00;71.10
16134;DHT22;8172;45.018;5.972;2023-06-22T17:47:02;19.00;70.80
16134;DHT22;8172;45.018;5.972;2023-06-22T17:52:15;19.00;71.30
16134;DHT22;8172;45.018;5.972;2023-06-22T17:57:20;19.10;71.30
16134;DHT22;8172;45.018;5.972;2023-06-22T18:02:28;19.10;71.30
16134;DHT22;8172;45.018;5.972;2023-06-22T18:07:37;19.10;71.30
16134;DHT22;8172;45.018;5.972;2023-06-22T18:12:45;19.00;71.10
16134;DHT22;8172;45.018;5.972;2023-06-22T18:17:54;19.00;71.40
16134;DHT22;8172;45.018;5.972;2023-06-22T18:23:01;19.00;71.20
16134;DHT22;8172;45.018;5.972;2023-06-22T18:28:11;19.00;71.60
16134;DHT22;8172;45.018;5.972;2023-06-22T18:33:19;18.90;71.50
16134;DHT22;8172;45.018;5.972;2023-06-22T18:38:28;18.90;71.50
16134;DHT22;8172;45.018;5.972;2023-06-22T18:43:37;18.90;71.70
16134;DHT22;8172;45.018;5.972;2023-06-22T18:48:45;18.90;71.50
16134;DHT22;8172;45.018;5.972;2023-06-22T18:59:02;18.80;71.70
16134;DHT22;8172;45.018;5.972;2023-06-22T19:09:21;18.80;71.90
16134;DHT22;8172;45.018;5.972;2023-06-22T19:14:28;18.70;71.70
16134;DHT22;8172;45.018;5.972;2023-06-22T19:19:36;18.70;72.20
16134;DHT22;8172;45.018;5.972;2023-06-22T19:29:55;18.70;72.30
16134;DHT22;8172;45.018;5.972;2023-06-22T19:35:02;18.70;72.30
16134;DHT22;8172;45.018;5.972;2023-06-22T19:40:12;18.70;72.50
16134;DHT22;8172;45.018;5.972;2023-06-22T19:45:19;18.70;72.20
16134;DHT22;8172;45.018;5.972;2023-06-22T19:50:32;18.70;72.20
16134;DHT22;8172;45.018;5.972;2023-06-22T19:55:39;18.70;72.50
16134;DHT22;8172;45.018;5.972;2023-06-22T20:00:47;18.70;72.20
16134;DHT22;8172;45.018;5.972;2023-06-22T20:11:07;18.70;72.60
16134;DHT22;8172;45.018;5.972;2023-06-22T20:16:14;18.70;72.20
16134;DHT22;8172;45.018;5.972;2023-06-22T20:21:23;18.70;72.30
16134;DHT22;8172;45.018;5.972;2023-06-22T20:31:41;18.70;72.30
16134;DHT22;8172;45.018;5.972;2023-06-22T20:36:48;18.60;72.40
16134;DHT22;8172;45.018;5.972;2023-06-22T20:41:56;18.60;72.40
16134;DHT22;8172;45.018;5.972;2023-06-22T20:47:04;18.50;72.30
16134;DHT22;8172;45.018;5.972;2023-06-22T20:52:11;18.50;72.40
16134;DHT22;8172;45.018;5.972;2023-06-22T20:57:19;18.50;72.10
16134;DHT22;8172;45.018;5.972;2023-06-22T21:02:27;18.40;72.40
16134;DHT22;8172;45.018;5.972;2023-06-22T21:07:35;18.50;72.20
16134;DHT22;8172;45.018;5.972;2023-06-22T21:12:43;18.60;72.10
16134;DHT22;8172;45.018;5.972;2023-06-22T21:17:50;18.60;72.30
16134;DHT22;8172;45.018;5.972;2023-06-22T21:22:57;18.60;72.10
16134;DHT22;8172;45.018;5.972;2023-06-22T21:28:04;18.60;71.90
16134;DHT22;8172;45.018;5.972;2023-06-22T21:33:11;18.50;72.00
16134;DHT22;8172;45.018;5.972;2023-06-22T21:38:20;18.50;71.90
16134;DHT22;8172;45.018;5.972;2023-06-22T21:43:30;18.50;71.90
16134;DHT22;8172;45.018;5.972;2023-06-22T21:48:38;18.50;72.00
16134;DHT22;8172;45.018;5.972;2023-06-22T21:53:46;18.50;72.00
16134;DHT22;8172;45.018;5.972;2023-06-22T21:58:53;18.50;72.10
16134;DHT22;8172;45.018;5.972;2023-06-22T22:04:01;18.50;72.10
16134;DHT22;8172;45.018;5.972;2023-06-22T22:09:08;18.50;72.20
16134;DHT22;8172;45.018;5.972;2023-06-22T22:14:16;18.60;72.30
16134;DHT22;8172;45.018;5.972;2023-06-22T22:19:24;18.60;72.40
16134;DHT22;8172;45.018;5.972;2023-06-22T22:24:31;18.50;72.30
16134;DHT22;8172;45.018;5.972;2023-06-22T22:29:39;18.30;72.60
16134;DHT22;8172;45.018;5.972;2023-06-22T22:34:46;18.20;73.10
16134;DHT22;8172;45.018;5.972;2023-06-22T22:39:53;18.20;73.10
16134;DHT22;8172;45.018;5.972;2023-06-22T22:45:01;18.30;73.00
16134;DHT22;8172;45.018;5.972;2023-06-22T22:50:10;18.30;73.00
16134;DHT22;8172;45.018;5.972;2023-06-22T22:55:18;18.40;72.90
16134;DHT22;8172;45.018;5.972;2023-06-22T23:00:25;18.40;72.90
16134;DHT22;8172;45.018;5.972;2023-06-22T23:05:33;18.40;72.90
16134;DHT22;8172;45.018;5.972;2023-06-22T23:10:40;18.50;72.90
16134;DHT22;8172;45.018;5.972;2023-06-22T23:15:47;18.50;72.90
16134;DHT22;8172;45.018;5.972;2023-06-22T23:20:57;18.40;72.90
16134;DHT22;8172;45.018;5.972;2023-06-22T23:26:06;18.40;72.90
16134;DHT22;8172;45.018;5.972;2023-06-22T23:31:14;18.40;73.00
16134;DHT22;8172;45.018;5.972;2023-06-22T23:36:21;18.40;72.90
16134;DHT22;8172;45.018;5.972;2023-06-22T23:41:28;18.40;72.90
16134;DHT22;8172;45.018;5.972;2023-06-22T23:46:37;18.40;72.90
16134;DHT22;8172;45.018;5.972;2023-06-22T23:51:44;18.40;72.90
16134;DHT22;8172;45.018;5.972;2023-06-22T23:56:55;18.30;73.00
